sensor_id;sensor_type;location;lat;lon;timestamp;P1;durP1;ratioP1;P2;durP2;ratioP2
1957;SDS011;979;51.076;13.748;2022-08-05T00:00:17;18.60;;;17.57;;
1957;SDS011;979;51.076;13.748;2022-08-05T00:02:47;16.70;;;16.10;;
1957;SDS011;979;51.076;13.748;2022-08-05T00:05:18;17.20;;;16.60;;
1957;SDS011;979;51.076;13.748;2022-08-05T00:08:06;17.07;;;16.37;;
1957;SDS011;979;51.076;13.748;2022-08-05T00:10:55;19.40;;;18.40;;
1957;SDS011;979;51.076;13.748;2022-08-05T00:13:30;17.87;;;17.17;;
1957;SDS011;979;51.076;13.748;2022-08-05T00:16:07;17.00;;;16.40;;
1957;SDS011;979;51.076;13.748;2022-08-05T00:18:39;16.97;;;16.37;;
1957;SDS011;979;51.076;13.748;2022-08-05T00:21:10;17.47;;;16.87;;
1957;SDS011;979;51.076;13.748;2022-08-05T00:23:40;17.53;;;16.83;;
1957;SDS011;979;51.076;13.748;2022-08-05T00:26:19;17.40;;;16.50;;
1957;SDS011;979;51.076;13.748;2022-08-05T00:28:49;17.30;;;16.70;;
1957;SDS011;979;51.076;13.748;2022-08-05T00:31:20;17.77;;;17.17;;
1957;SDS011;979;51.076;13.748;2022-08-05T00:34:09;18.07;;;16.97;;
1957;SDS011;979;51.076;13.748;2022-08-05T00:36:57;17.67;;;16.90;;
1957;SDS011;979;51.076;13.748;2022-08-05T00:39:38;21.67;;;20.50;;
1957;SDS011;979;51.076;13.748;2022-08-05T00:42:30;18.80;;;17.90;;
1957;SDS011;979;51.076;13.748;2022-08-05T00:45:04;18.00;;;17.30;;
1957;SDS011;979;51.076;13.748;2022-08-05T00:47:38;17.93;;;17.23;;
1957;SDS011;979;51.076;13.748;2022-08-05T00:50:25;17.60;;;16.80;;
1957;SDS011;979;51.076;13.748;2022-08-05T00:52:53;18.13;;;17.43;;
1957;SDS011;979;51.076;13.748;2022-08-05T00:55:22;17.20;;;16.60;;
1957;SDS011;979;51.076;13.748;2022-08-05T00:58:08;18.00;;;17.20;;
1957;SDS011;979;51.076;13.748;2022-08-05T01:00:38;18.17;;;17.37;;
1957;SDS011;979;51.076;13.748;2022-08-05T01:03:11;18.07;;;17.37;;
1957;SDS011;979;51.076;13.748;2022-08-05T01:05:48;18.07;;;17.37;;
1957;SDS011;979;51.076;13.748;2022-08-05T01:08:20;20.30;;;19.30;;
1957;SDS011;979;51.076;13.748;2022-08-05T01:11:11;18.13;;;17.43;;
1957;SDS011;979;51.076;13.748;2022-08-05T01:13:56;18.30;;;17.50;;
1957;SDS011;979;51.076;13.748;2022-08-05T01:16:39;17.83;;;17.13;;
1957;SDS011;979;51.076;13.748;2022-08-05T01:19:18;18.50;;;17.80;;
1957;SDS011;979;51.076;13.748;2022-08-05T01:22:15;18.27;;;17.53;;
1957;SDS011;979;51.076;13.748;2022-08-05T01:25:07;18.63;;;17.83;;
1957;SDS011;979;51.076;13.748;2022-08-05T01:30:55;18.50;;;17.70;;
1957;SDS011;979;51.076;13.748;2022-08-05T01:33:30;19.20;;;18.10;;
1957;SDS011;979;51.076;13.748;2022-08-05T01:36:07;17.00;;;16.40;;
1957;SDS011;979;51.076;13.748;2022-08-05T01:38:48;18.10;;;17.30;;
1957;SDS011;979;51.076;13.748;2022-08-05T01:41:20;18.00;;;17.27;;
1957;SDS011;979;51.076;13.748;2022-08-05T01:43:55;18.57;;;17.47;;
1957;SDS011;979;51.076;13.748;2022-08-05T01:46:28;18.30;;;17.60;;
1957;SDS011;979;51.076;13.748;2022-08-05T01:49:20;18.97;;;18.07;;
1957;SDS011;979;51.076;13.748;2022-08-05T01:52:15;19.37;;;18.40;;
1957;SDS011;979;51.076;13.748;2022-08-05T01:55:00;17.83;;;17.20;;
1957;SDS011;979;51.076;13.748;2022-08-05T01:57:34;17.87;;;17.17;;
1957;SDS011;979;51.076;13.748;2022-08-05T02:00:28;18.60;;;17.90;;
1957;SDS011;979;51.076;13.748;2022-08-05T02:03:03;18.40;;;17.50;;
1957;SDS011;979;51.076;13.748;2022-08-05T02:05:54;19.57;;;18.77;;
1957;SDS011;979;51.076;13.748;2022-08-05T02:08:26;19.10;;;18.07;;
1957;SDS011;979;51.076;13.748;2022-08-05T02:10:58;17.90;;;17.20;;
1957;SDS011;979;51.076;13.748;2022-08-05T02:13:40;17.47;;;16.77;;
1957;SDS011;979;51.076;13.748;2022-08-05T02:16:26;19.37;;;18.57;;
1957;SDS011;979;51.076;13.748;2022-08-05T02:18:58;17.63;;;16.83;;
1957;SDS011;979;51.076;13.748;2022-08-05T02:21:33;17.80;;;17.10;;
1957;SDS011;979;51.076;13.748;2022-08-05T02:24:13;18.70;;;17.97;;
1957;SDS011;979;51.076;13.748;2022-08-05T02:26:50;18.17;;;17.37;;
1957;SDS011;979;51.076;13.748;2022-08-05T02:29:22;17.73;;;17.13;;
1957;SDS011;979;51.076;13.748;2022-08-05T02:32:14;18.83;;;17.90;;
1957;SDS011;979;51.076;13.748;2022-08-05T02:34:57;18.50;;;17.60;;
1957;SDS011;979;51.076;13.748;2022-08-05T02:37:39;18.97;;;18.00;;
1957;SDS011;979;51.076;13.748;2022-08-05T02:40:18;18.50;;;17.70;;
1957;SDS011;979;51.076;13.748;2022-08-05T02:42:49;18.63;;;17.93;;
1957;SDS011;979;51.076;13.748;2022-08-05T02:45:20;19.53;;;18.53;;
1957;SDS011;979;51.076;13.748;2022-08-05T02:47:52;18.83;;;17.90;;
1957;SDS011;979;51.076;13.748;2022-08-05T02:50:37;18.53;;;17.73;;
1957;SDS011;979;51.076;13.748;2022-08-05T02:53:09;20.00;;;18.80;;
1957;SDS011;979;51.076;13.748;2022-08-05T02:55:44;18.80;;;17.90;;
1957;SDS011;979;51.076;13.748;2022-08-05T02:58:25;17.87;;;17.00;;
1957;SDS011;979;51.076;13.748;2022-08-05T03:00:55;19.37;;;18.17;;
1957;SDS011;979;51.076;13.748;2022-08-05T03:03:29;18.07;;;17.27;;
1957;SDS011;979;51.076;13.748;2022-08-05T03:06:21;18.00;;;17.10;;
1957;SDS011;979;51.076;13.748;2022-08-05T03:09:10;17.90;;;16.90;;
1957;SDS011;979;51.076;13.748;2022-08-05T03:14:53;18.20;;;17.30;;
1957;SDS011;979;51.076;13.748;2022-08-05T03:17:22;17.83;;;17.10;;
1957;SDS011;979;51.076;13.748;2022-08-05T03:19:53;20.57;;;19.30;;
1957;SDS011;979;51.076;13.748;2022-08-05T03:22:24;17.70;;;16.90;;
1957;SDS011;979;51.076;13.748;2022-08-05T03:24:58;17.80;;;17.10;;
1957;SDS011;979;51.076;13.748;2022-08-05T03:27:48;19.07;;;18.07;;
1957;SDS011;979;51.076;13.748;2022-08-05T03:30:25;19.80;;;18.90;;
1957;SDS011;979;51.076;13.748;2022-08-05T03:33:01;18.77;;;17.77;;
1957;SDS011;979;51.076;13.748;2022-08-05T03:35:33;20.20;;;19.00;;
1957;SDS011;979;51.076;13.748;2022-08-05T03:38:07;20.07;;;18.90;;
1957;SDS011;979;51.076;13.748;2022-08-05T03:40:48;19.20;;;18.50;;
1957;SDS011;979;51.076;13.748;2022-08-05T03:43:23;20.27;;;19.27;;
1957;SDS011;979;51.076;13.748;2022-08-05T03:46:11;19.57;;;18.70;;
1957;SDS011;979;51.076;13.748;2022-08-05T03:48:43;19.70;;;18.90;;
1957;SDS011;979;51.076;13.748;2022-08-05T03:51:20;21.00;;;19.90;;
1957;SDS011;979;51.076;13.748;2022-08-05T03:54:18;20.33;;;19.43;;
1957;SDS011;979;51.076;13.748;2022-08-05T03:57:11;20.27;;;19.37;;
1957;SDS011;979;51.076;13.748;2022-08-05T04:00:03;20.13;;;19.30;;
1957;SDS011;979;51.076;13.748;2022-08-05T04:02:39;20.13;;;19.17;;
1957;SDS011;979;51.076;13.748;2022-08-05T04:05:23;19.37;;;18.57;;
1957;SDS011;979;51.076;13.748;2022-08-05T04:08:02;20.20;;;19.30;;
1957;SDS011;979;51.076;13.748;2022-08-05T04:10:58;19.63;;;18.40;;
1957;SDS011;979;51.076;13.748;2022-08-05T04:13:28;20.23;;;19.33;;
1957;SDS011;979;51.076;13.748;2022-08-05T04:16:17;20.27;;;19.20;;
1957;SDS011;979;51.076;13.748;2022-08-05T04:18:51;19.73;;;18.50;;
1957;SDS011;979;51.076;13.748;2022-08-05T04:21:23;19.50;;;18.67;;
1957;SDS011;979;51.076;13.748;2022-08-05T04:24:13;20.43;;;19.27;;
1957;SDS011;979;51.076;13.748;2022-08-05T04:26:48;19.27;;;18.47;;
1957;SDS011;979;51.076;13.748;2022-08-05T04:29:16;19.80;;;18.90;;
1957;SDS011;979;51.076;13.748;2022-08-05T04:31:45;19.70;;;18.80;;
1957;SDS011;979;51.076;13.748;2022-08-05T04:34:15;20.27;;;19.37;;
1957;SDS011;979;51.076;13.748;2022-08-05T04:36:59;20.13;;;19.13;;
1957;SDS011;979;51.076;13.748;2022-08-05T04:39:33;19.67;;;18.67;;
1957;SDS011;979;51.076;13.748;2022-08-05T04:42:03;20.43;;;19.20;;
1957;SDS011;979;51.076;13.748;2022-08-05T04:44:36;20.73;;;19.60;;
1957;SDS011;979;51.076;13.748;2022-08-05T04:47:05;21.27;;;20.27;;
1957;SDS011;979;51.076;13.748;2022-08-05T04:49:36;20.20;;;19.00;;
1957;SDS011;979;51.076;13.748;2022-08-05T04:52:25;19.70;;;18.63;;
1957;SDS011;979;51.076;13.748;2022-08-05T04:54:55;20.23;;;19.10;;
1957;SDS011;979;51.076;13.748;2022-08-05T04:57:29;19.90;;;19.10;;
1957;SDS011;979;51.076;13.748;2022-08-05T05:00:02;20.30;;;19.40;;
1957;SDS011;979;51.076;13.748;2022-08-05T05:02:37;21.23;;;20.07;;
1957;SDS011;979;51.076;13.748;2022-08-05T05:05:10;19.47;;;18.67;;
1957;SDS011;979;51.076;13.748;2022-08-05T05:07:54;19.97;;;18.53;;
1957;SDS011;979;51.076;13.748;2022-08-05T05:10:29;20.03;;;19.13;;
1957;SDS011;979;51.076;13.748;2022-08-05T05:13:01;20.00;;;19.10;;
1957;SDS011;979;51.076;13.748;2022-08-05T05:15:30;19.80;;;19.00;;
1957;SDS011;979;51.076;13.748;2022-08-05T05:18:21;20.77;;;19.63;;
1957;SDS011;979;51.076;13.748;2022-08-05T05:20:59;20.00;;;19.10;;
1957;SDS011;979;51.076;13.748;2022-08-05T05:23:29;21.27;;;20.13;;
1957;SDS011;979;51.076;13.748;2022-08-05T05:26:18;20.77;;;19.57;;
1957;SDS011;979;51.076;13.748;2022-08-05T05:28:58;20.53;;;19.43;;
1957;SDS011;979;51.076;13.748;2022-08-05T05:31:27;20.53;;;19.13;;
1957;SDS011;979;51.076;13.748;2022-08-05T05:33:56;20.80;;;19.57;;
1957;SDS011;979;51.076;13.748;2022-08-05T05:36:30;22.00;;;20.77;;
1957;SDS011;979;51.076;13.748;2022-08-05T05:39:05;20.60;;;19.40;;
1957;SDS011;979;51.076;13.748;2022-08-05T05:41:38;21.20;;;20.10;;
1957;SDS011;979;51.076;13.748;2022-08-05T05:44:10;21.70;;;20.50;;
1957;SDS011;979;51.076;13.748;2022-08-05T05:46:58;20.67;;;19.57;;
1957;SDS011;979;51.076;13.748;2022-08-05T05:49:38;20.90;;;19.87;;
1957;SDS011;979;51.076;13.748;2022-08-05T05:52:07;22.33;;;20.80;;
1957;SDS011;979;51.076;13.748;2022-08-05T05:54:53;21.80;;;20.33;;
1957;SDS011;979;51.076;13.748;2022-08-05T05:57:23;21.13;;;20.10;;
1957;SDS011;979;51.076;13.748;2022-08-05T06:00:11;20.20;;;19.30;;
1957;SDS011;979;51.076;13.748;2022-08-05T06:02:42;20.90;;;19.43;;
1957;SDS011;979;51.076;13.748;2022-08-05T06:05:11;21.20;;;20.10;;
1957;SDS011;979;51.076;13.748;2022-08-05T06:07:42;20.47;;;19.57;;
1957;SDS011;979;51.076;13.748;2022-08-05T06:10:27;20.87;;;19.70;;
1957;SDS011;979;51.076;13.748;2022-08-05T06:13:04;19.80;;;18.90;;
1957;SDS011;979;51.076;13.748;2022-08-05T06:15:33;20.07;;;19.10;;
1957;SDS011;979;51.076;13.748;2022-08-05T06:18:22;19.10;;;18.33;;
1957;SDS011;979;51.076;13.748;2022-08-05T06:20:59;21.07;;;19.70;;
1957;SDS011;979;51.076;13.748;2022-08-05T06:23:33;19.73;;;18.63;;
1957;SDS011;979;51.076;13.748;2022-08-05T06:26:09;19.70;;;18.70;;
1957;SDS011;979;51.076;13.748;2022-08-05T06:28:51;20.57;;;19.37;;
1957;SDS011;979;51.076;13.748;2022-08-05T06:31:19;20.90;;;19.50;;
1957;SDS011;979;51.076;13.748;2022-08-05T06:33:57;19.77;;;18.73;;
1957;SDS011;979;51.076;13.748;2022-08-05T06:36:34;20.13;;;19.13;;
1957;SDS011;979;51.076;13.748;2022-08-05T06:39:22;18.77;;;17.97;;
1957;SDS011;979;51.076;13.748;2022-08-05T06:41:53;19.20;;;18.40;;
1957;SDS011;979;51.076;13.748;2022-08-05T06:44:26;19.90;;;18.70;;
1957;SDS011;979;51.076;13.748;2022-08-05T06:46:54;19.73;;;18.60;;
1957;SDS011;979;51.076;13.748;2022-08-05T06:49:27;19.00;;;18.00;;
1957;SDS011;979;51.076;13.748;2022-08-05T06:52:16;19.33;;;17.93;;
1957;SDS011;979;51.076;13.748;2022-08-05T07:30:08;21.00;;;19.90;;
1957;SDS011;979;51.076;13.748;2022-08-05T07:36:09;20.50;;;19.13;;
1957;SDS011;979;51.076;13.748;2022-08-05T07:39:19;19.60;;;18.80;;
1957;SDS011;979;51.076;13.748;2022-08-05T07:42:16;20.20;;;19.07;;
1957;SDS011;979;51.076;13.748;2022-08-05T08:20:43;20.40;;;19.40;;
1957;SDS011;979;51.076;13.748;2022-08-05T08:24:08;21.27;;;20.10;;
1957;SDS011;979;51.076;13.748;2022-08-05T08:27:08;20.50;;;19.70;;
1957;SDS011;979;51.076;13.748;2022-08-05T08:30:45;20.17;;;19.07;;
1957;SDS011;979;51.076;13.748;2022-08-05T09:01:40;19.80;;;18.93;;
1957;SDS011;979;51.076;13.748;2022-08-05T09:04:37;20.67;;;19.37;;
1957;SDS011;979;51.076;13.748;2022-08-05T09:07:35;20.10;;;18.90;;
1957;SDS011;979;51.076;13.748;2022-08-05T09:10:32;20.00;;;19.10;;
1957;SDS011;979;51.076;13.748;2022-08-05T09:13:28;20.60;;;19.30;;
1957;SDS011;979;51.076;13.748;2022-08-05T09:26:51;20.80;;;19.40;;
1957;SDS011;979;51.076;13.748;2022-08-05T09:29:57;20.77;;;19.67;;
1957;SDS011;979;51.076;13.748;2022-08-05T09:33:00;19.27;;;18.47;;
1957;SDS011;979;51.076;13.748;2022-08-05T09:36:08;20.87;;;19.97;;
1957;SDS011;979;51.076;13.748;2022-08-05T09:39:11;19.90;;;18.83;;
1957;SDS011;979;51.076;13.748;2022-08-05T10:16:55;19.40;;;18.30;;
1957;SDS011;979;51.076;13.748;2022-08-05T10:24:11;20.27;;;19.17;;
1957;SDS011;979;51.076;13.748;2022-08-05T10:27:30;21.83;;;20.50;;
1957;SDS011;979;51.076;13.748;2022-08-05T10:31:36;20.23;;;19.43;;
1957;SDS011;979;51.076;13.748;2022-08-05T10:49:10;20.07;;;19.07;;
1957;SDS011;979;51.076;13.748;2022-08-05T10:56:03;21.43;;;20.40;;
1957;SDS011;979;51.076;13.748;2022-08-05T10:59:24;20.93;;;19.83;;
1957;SDS011;979;51.076;13.748;2022-08-05T11:02:34;21.23;;;20.23;;
1957;SDS011;979;51.076;13.748;2022-08-05T11:12:49;21.10;;;20.00;;
1957;SDS011;979;51.076;13.748;2022-08-05T11:15:25;22.20;;;21.20;;
1957;SDS011;979;51.076;13.748;2022-08-05T11:18:25;21.03;;;19.93;;
1957;SDS011;979;51.076;13.748;2022-08-05T11:21:00;20.87;;;19.53;;
1957;SDS011;979;51.076;13.748;2022-08-05T11:23:40;21.20;;;20.10;;
1957;SDS011;979;51.076;13.748;2022-08-05T11:26:49;20.80;;;19.90;;
1957;SDS011;979;51.076;13.748;2022-08-05T11:29:38;21.43;;;20.40;;
1957;SDS011;979;51.076;13.748;2022-08-05T11:32:23;20.73;;;19.67;;
1957;SDS011;979;51.076;13.748;2022-08-05T11:34:55;20.97;;;20.00;;
1957;SDS011;979;51.076;13.748;2022-08-05T11:37:40;21.00;;;20.10;;
1957;SDS011;979;51.076;13.748;2022-08-05T11:40:55;20.13;;;19.33;;
1957;SDS011;979;51.076;13.748;2022-08-05T11:43:43;20.80;;;19.60;;
1957;SDS011;979;51.076;13.748;2022-08-05T11:46:32;21.00;;;20.10;;
1957;SDS011;979;51.076;13.748;2022-08-05T11:49:28;20.00;;;19.20;;
1957;SDS011;979;51.076;13.748;2022-08-05T11:51:59;22.90;;;21.83;;
1957;SDS011;979;51.076;13.748;2022-08-05T11:54:37;21.97;;;20.63;;
1957;SDS011;979;51.076;13.748;2022-08-05T11:57:07;20.60;;;19.80;;
1957;SDS011;979;51.076;13.748;2022-08-05T11:59:52;19.43;;;18.57;;
1957;SDS011;979;51.076;13.748;2022-08-05T12:02:25;20.30;;;19.20;;
1957;SDS011;979;51.076;13.748;2022-08-05T12:04:58;18.03;;;17.30;;
1957;SDS011;979;51.076;13.748;2022-08-05T12:07:43;18.80;;;18.10;;
1957;SDS011;979;51.076;13.748;2022-08-05T12:10:33;21.33;;;20.00;;
1957;SDS011;979;51.076;13.748;2022-08-05T12:13:15;20.90;;;20.00;;
1957;SDS011;979;51.076;13.748;2022-08-05T12:19:56;19.33;;;18.57;;
1957;SDS011;979;51.076;13.748;2022-08-05T12:23:07;19.13;;;18.23;;
1957;SDS011;979;51.076;13.748;2022-08-05T12:25:49;18.30;;;17.50;;
1957;SDS011;979;51.076;13.748;2022-08-05T12:28:34;18.27;;;17.60;;
1957;SDS011;979;51.076;13.748;2022-08-05T12:31:22;17.90;;;16.97;;
1957;SDS011;979;51.076;13.748;2022-08-05T12:34:44;18.17;;;17.57;;
1957;SDS011;979;51.076;13.748;2022-08-05T12:40:36;16.97;;;16.37;;
1957;SDS011;979;51.076;13.748;2022-08-05T12:47:08;18.67;;;17.87;;
1957;SDS011;979;51.076;13.748;2022-08-05T12:49:55;18.57;;;17.70;;
1957;SDS011;979;51.076;13.748;2022-08-05T12:52:57;18.93;;;18.23;;
1957;SDS011;979;51.076;13.748;2022-08-05T12:55:42;18.33;;;17.33;;
1957;SDS011;979;51.076;13.748;2022-08-05T12:58:51;17.77;;;17.17;;
1957;SDS011;979;51.076;13.748;2022-08-05T13:03:04;18.07;;;17.47;;
1957;SDS011;979;51.076;13.748;2022-08-05T13:05:47;17.70;;;17.10;;
1957;SDS011;979;51.076;13.748;2022-08-05T13:08:30;18.67;;;18.07;;
1957;SDS011;979;51.076;13.748;2022-08-05T13:11:06;17.80;;;17.00;;
1957;SDS011;979;51.076;13.748;2022-08-05T13:13:47;16.97;;;16.27;;
1957;SDS011;979;51.076;13.748;2022-08-05T13:16:43;17.47;;;16.77;;
1957;SDS011;979;51.076;13.748;2022-08-05T13:19:19;17.97;;;17.17;;
1957;SDS011;979;51.076;13.748;2022-08-05T13:22:21;16.10;;;15.67;;
1957;SDS011;979;51.076;13.748;2022-08-05T13:24:59;17.20;;;16.70;;
1957;SDS011;979;51.076;13.748;2022-08-05T13:27:48;17.58;;;16.95;;
1957;SDS011;979;51.076;13.748;2022-08-05T13:30:25;18.05;;;17.23;;
1957;SDS011;979;51.076;13.748;2022-08-05T13:33:08;16.00;;;15.60;;
1957;SDS011;979;51.076;13.748;2022-08-05T13:36:00;16.65;;;16.05;;
1957;SDS011;979;51.076;13.748;2022-08-05T13:38:42;18.17;;;17.38;;
1957;SDS011;979;51.076;13.748;2022-08-05T13:41:27;16.95;;;16.45;;
1957;SDS011;979;51.076;13.748;2022-08-05T13:44:03;17.10;;;16.40;;
1957;SDS011;979;51.076;13.748;2022-08-05T13:50:00;16.98;;;16.48;;
1957;SDS011;979;51.076;13.748;2022-08-05T13:52:51;16.10;;;15.40;;
1957;SDS011;979;51.076;13.748;2022-08-05T13:55:28;17.08;;;16.27;;
1957;SDS011;979;51.076;13.748;2022-08-05T13:58:26;17.60;;;17.00;;
1957;SDS011;979;51.076;13.748;2022-08-05T14:01:13;16.65;;;16.15;;
1957;SDS011;979;51.076;13.748;2022-08-05T14:04:17;17.08;;;16.58;;
1957;SDS011;979;51.076;13.748;2022-08-05T14:07:21;16.67;;;16.17;;
1957;SDS011;979;51.076;13.748;2022-08-05T14:10:57;16.10;;;15.50;;
1957;SDS011;979;51.076;13.748;2022-08-05T14:13:49;16.37;;;15.77;;
1957;SDS011;979;51.076;13.748;2022-08-05T14:16:29;16.80;;;16.20;;
1957;SDS011;979;51.076;13.748;2022-08-05T14:19:05;17.20;;;16.50;;
1957;SDS011;979;51.076;13.748;2022-08-05T14:22:26;16.90;;;16.30;;
1957;SDS011;979;51.076;13.748;2022-08-05T14:25:04;17.80;;;17.20;;
1957;SDS011;979;51.076;13.748;2022-08-05T14:28:49;17.67;;;16.90;;
1957;SDS011;979;51.076;13.748;2022-08-05T14:31:24;17.05;;;16.55;;
1957;SDS011;979;51.076;13.748;2022-08-05T14:34:16;16.60;;;16.00;;
1957;SDS011;979;51.076;13.748;2022-08-05T14:36:54;16.40;;;15.90;;
1957;SDS011;979;51.076;13.748;2022-08-05T14:39:32;17.88;;;17.27;;
1957;SDS011;979;51.076;13.748;2022-08-05T14:42:24;16.90;;;16.17;;
1957;SDS011;979;51.076;13.748;2022-08-05T14:44:56;17.23;;;16.70;;
1957;SDS011;979;51.076;13.748;2022-08-05T14:47:25;16.92;;;16.33;;
1957;SDS011;979;51.076;13.748;2022-08-05T14:50:32;17.08;;;16.52;;
1957;SDS011;979;51.076;13.748;2022-08-05T14:53:05;16.60;;;16.00;;
1957;SDS011;979;51.076;13.748;2022-08-05T14:55:46;16.98;;;16.27;;
1957;SDS011;979;51.076;13.748;2022-08-05T14:58:23;16.43;;;15.90;;
1957;SDS011;979;51.076;13.748;2022-08-05T15:01:01;16.70;;;16.20;;
1957;SDS011;979;51.076;13.748;2022-08-05T15:03:43;16.80;;;16.20;;
1957;SDS011;979;51.076;13.748;2022-08-05T15:06:14;16.70;;;16.13;;
1957;SDS011;979;51.076;13.748;2022-08-05T15:09:02;16.93;;;16.20;;
1957;SDS011;979;51.076;13.748;2022-08-05T15:12:20;16.93;;;16.33;;
1957;SDS011;979;51.076;13.748;2022-08-05T15:14:53;17.03;;;16.53;;
1957;SDS011;979;51.076;13.748;2022-08-05T15:17:28;16.70;;;16.10;;
1957;SDS011;979;51.076;13.748;2022-08-05T15:20:16;15.40;;;14.80;;
1957;SDS011;979;51.076;13.748;2022-08-05T15:22:50;15.93;;;15.40;;
1957;SDS011;979;51.076;13.748;2022-08-05T15:25:20;16.45;;;15.55;;
1957;SDS011;979;51.076;13.748;2022-08-05T15:28:09;15.70;;;15.23;;
1957;SDS011;979;51.076;13.748;2022-08-05T15:30:40;15.07;;;14.68;;
1957;SDS011;979;51.076;13.748;2022-08-05T15:33:13;15.73;;;15.32;;
1957;SDS011;979;51.076;13.748;2022-08-05T15:36:02;15.52;;;15.02;;
1957;SDS011;979;51.076;13.748;2022-08-05T15:38:50;15.48;;;14.98;;
1957;SDS011;979;51.076;13.748;2022-08-05T15:41:38;16.88;;;15.98;;
1957;SDS011;979;51.076;13.748;2022-08-05T15:44:24;15.90;;;15.40;;
1957;SDS011;979;51.076;13.748;2022-08-05T15:46:56;16.58;;;15.77;;
1957;SDS011;979;51.076;13.748;2022-08-05T15:49:30;16.27;;;15.77;;
1957;SDS011;979;51.076;13.748;2022-08-05T15:52:18;15.70;;;14.70;;
1957;SDS011;979;51.076;13.748;2022-08-05T15:55:10;14.93;;;14.30;;
1957;SDS011;979;51.076;13.748;2022-08-05T15:57:41;16.70;;;16.10;;
1957;SDS011;979;51.076;13.748;2022-08-05T16:00:39;16.60;;;15.70;;
1957;SDS011;979;51.076;13.748;2022-08-05T16:03:31;15.40;;;15.00;;
1957;SDS011;979;51.076;13.748;2022-08-05T16:06:01;15.90;;;15.40;;
1957;SDS011;979;51.076;13.748;2022-08-05T16:08:37;16.33;;;15.80;;
1957;SDS011;979;51.076;13.748;2022-08-05T16:14:12;17.23;;;16.40;;
1957;SDS011;979;51.076;13.748;2022-08-05T16:16:52;15.67;;;15.23;;
1957;SDS011;979;51.076;13.748;2022-08-05T16:19:28;16.43;;;15.73;;
1957;SDS011;979;51.076;13.748;2022-08-05T16:22:30;17.00;;;16.10;;
1957;SDS011;979;51.076;13.748;2022-08-05T16:25:09;16.40;;;15.80;;
1957;SDS011;979;51.076;13.748;2022-08-05T16:27:42;16.40;;;15.60;;
1957;SDS011;979;51.076;13.748;2022-08-05T16:30:34;15.50;;;15.00;;
1957;SDS011;979;51.076;13.748;2022-08-05T16:33:07;15.80;;;15.30;;
1957;SDS011;979;51.076;13.748;2022-08-05T16:38:35;15.80;;;15.20;;
1957;SDS011;979;51.076;13.748;2022-08-05T16:41:06;16.67;;;15.90;;
1957;SDS011;979;51.076;13.748;2022-08-05T16:43:54;15.80;;;15.20;;
1957;SDS011;979;51.076;13.748;2022-08-05T16:46:22;16.50;;;15.90;;
1957;SDS011;979;51.076;13.748;2022-08-05T16:48:52;16.57;;;15.90;;
1957;SDS011;979;51.076;13.748;2022-08-05T16:51:21;16.23;;;15.53;;
1957;SDS011;979;51.076;13.748;2022-08-05T16:53:57;17.23;;;16.27;;
1957;SDS011;979;51.076;13.748;2022-08-05T17:19:15;18.07;;;17.13;;
1957;SDS011;979;51.076;13.748;2022-08-05T17:21:45;17.77;;;16.77;;
1957;SDS011;979;51.076;13.748;2022-08-05T17:24:19;18.10;;;17.40;;
1957;SDS011;979;51.076;13.748;2022-08-05T17:31:12;17.43;;;16.70;;
1957;SDS011;979;51.076;13.748;2022-08-05T17:33:50;16.80;;;16.20;;
1957;SDS011;979;51.076;13.748;2022-08-05T17:36:20;16.23;;;15.57;;
1957;SDS011;979;51.076;13.748;2022-08-05T17:39:00;15.73;;;15.03;;
1957;SDS011;979;51.076;13.748;2022-08-05T17:41:30;16.30;;;15.67;;
1957;SDS011;979;51.076;13.748;2022-08-05T17:44:18;16.90;;;16.30;;
1957;SDS011;979;51.076;13.748;2022-08-05T17:47:01;17.63;;;16.30;;
1957;SDS011;979;51.076;13.748;2022-08-05T17:49:30;18.80;;;16.93;;
1957;SDS011;979;51.076;13.748;2022-08-05T17:52:29;17.20;;;15.73;;
1957;SDS011;979;51.076;13.748;2022-08-05T17:54:58;22.17;;;16.90;;
1957;SDS011;979;51.076;13.748;2022-08-05T17:57:38;18.27;;;16.63;;
1957;SDS011;979;51.076;13.748;2022-08-05T18:00:14;17.50;;;16.27;;
1957;SDS011;979;51.076;13.748;2022-08-05T18:02:44;16.53;;;15.63;;
1957;SDS011;979;51.076;13.748;2022-08-05T18:05:14;17.23;;;16.53;;
1957;SDS011;979;51.076;13.748;2022-08-05T18:07:47;16.80;;;16.10;;
1957;SDS011;979;51.076;13.748;2022-08-05T18:10:15;17.27;;;16.30;;
1957;SDS011;979;51.076;13.748;2022-08-05T18:12:46;17.07;;;15.97;;
1957;SDS011;979;51.076;13.748;2022-08-05T18:15:15;16.53;;;15.63;;
1957;SDS011;979;51.076;13.748;2022-08-05T18:17:44;17.37;;;16.17;;
1957;SDS011;979;51.076;13.748;2022-08-05T18:20:27;16.90;;;16.20;;
1957;SDS011;979;51.076;13.748;2022-08-05T18:27:16;18.20;;;17.20;;
1957;SDS011;979;51.076;13.748;2022-08-05T18:30:22;17.43;;;16.53;;
1957;SDS011;979;51.076;13.748;2022-08-05T18:33:13;19.10;;;18.10;;
1957;SDS011;979;51.076;13.748;2022-08-05T18:36:10;18.70;;;17.60;;
1957;SDS011;979;51.076;13.748;2022-08-05T18:39:01;18.20;;;17.30;;
1957;SDS011;979;51.076;13.748;2022-08-05T18:52:53;20.07;;;18.87;;
1957;SDS011;979;51.076;13.748;2022-08-05T18:56:12;21.40;;;20.10;;
1957;SDS011;979;51.076;13.748;2022-08-05T18:58:47;20.70;;;19.80;;
1957;SDS011;979;51.076;13.748;2022-08-05T19:01:24;19.00;;;18.03;;
1957;SDS011;979;51.076;13.748;2022-08-05T19:04:15;19.70;;;18.67;;
1957;SDS011;979;51.076;13.748;2022-08-05T19:06:57;21.67;;;20.30;;
1957;SDS011;979;51.076;13.748;2022-08-05T19:09:28;20.77;;;19.50;;
1957;SDS011;979;51.076;13.748;2022-08-05T19:12:06;20.77;;;19.63;;
1957;SDS011;979;51.076;13.748;2022-08-05T19:14:38;21.43;;;20.13;;
1957;SDS011;979;51.076;13.748;2022-08-05T19:17:26;21.03;;;19.83;;
1957;SDS011;979;51.076;13.748;2022-08-05T19:20:17;22.03;;;20.63;;
1957;SDS011;979;51.076;13.748;2022-08-05T19:22:51;20.77;;;19.73;;
1957;SDS011;979;51.076;13.748;2022-08-05T19:25:22;21.67;;;20.47;;
1957;SDS011;979;51.076;13.748;2022-08-05T19:28:09;23.40;;;21.60;;
1957;SDS011;979;51.076;13.748;2022-08-05T19:30:39;22.03;;;20.83;;
1957;SDS011;979;51.076;13.748;2022-08-05T19:33:16;21.70;;;20.40;;
1957;SDS011;979;51.076;13.748;2022-08-05T19:36:02;21.03;;;20.03;;
1957;SDS011;979;51.076;13.748;2022-08-05T19:38:34;21.67;;;20.47;;
1957;SDS011;979;51.076;13.748;2022-08-05T19:41:53;20.97;;;19.67;;
1957;SDS011;979;51.076;13.748;2022-08-05T19:44:34;20.23;;;19.23;;
1957;SDS011;979;51.076;13.748;2022-08-05T19:47:23;19.70;;;18.40;;
1957;SDS011;979;51.076;13.748;2022-08-05T19:49:54;21.33;;;20.13;;
1957;SDS011;979;51.076;13.748;2022-08-05T19:52:30;20.97;;;19.43;;
1957;SDS011;979;51.076;13.748;2022-08-05T19:54:58;21.73;;;20.33;;
1957;SDS011;979;51.076;13.748;2022-08-05T19:57:49;20.30;;;19.27;;
1957;SDS011;979;51.076;13.748;2022-08-05T20:00:40;21.23;;;20.10;;
1957;SDS011;979;51.076;13.748;2022-08-05T20:03:43;20.33;;;19.23;;
1957;SDS011;979;51.076;13.748;2022-08-05T20:06:25;20.40;;;19.37;;
1957;SDS011;979;51.076;13.748;2022-08-05T20:08:55;20.20;;;19.30;;
1957;SDS011;979;51.076;13.748;2022-08-05T20:11:39;20.10;;;18.57;;
1957;SDS011;979;51.076;13.748;2022-08-05T20:14:16;17.60;;;16.70;;
1957;SDS011;979;51.076;13.748;2022-08-05T20:17:04;17.90;;;17.17;;
1957;SDS011;979;51.076;13.748;2022-08-05T20:20:21;18.23;;;17.33;;
1957;SDS011;979;51.076;13.748;2022-08-05T20:22:50;17.30;;;16.50;;
1957;SDS011;979;51.076;13.748;2022-08-05T20:25:23;17.50;;;16.60;;
1957;SDS011;979;51.076;13.748;2022-08-05T20:30:44;15.20;;;14.70;;